Time;durP1;ratioP1;P1;durP2;ratioP2;P2;SDS_P1;SDS_P2;PMS_P1;PMS_P2;Temp;Humidity;BMP_temperature;BMP_pressure;BME280_temperature;BME280_humidity;BME280_pressure;Samples;Min_cycle;Max_cycle;Signal;HPM_P1;HPM_P2
2023/10/02 00:02:42;;;;;;;13.17;6.93;;;;;;;18.18;56.21;99432.91;7055103;28;20693;-84
2023/10/02 00:06:04;;;;;;;12.73;7.23;;;;;;;18.37;55.89;99437.19;7033045;28;20368;-84
2023/10/02 00:09:27;;;;;;;11.63;6.63;;;;;;;18.06;56.44;99435.66;7060381;27;20193;-85
2023/10/02 00:12:58;;;;;;;10.87;6.47;;;;;;;17.82;57.40;99438.63;7039030;28;20291;-84
2023/10/02 00:16:18;;;;;;;10.57;6.70;;;;;;;17.81;57.64;99437.78;7031882;28;20280;-84
2023/10/02 00:19:42;;;;;;;13.80;7.13;;;;;;;17.22;59.00;99424.22;7050347;28;20281;-84
2023/10/02 00:23:04;;;;;;;11.10;6.63;;;;;;;17.58;58.22;99407.75;7044236;28;20203;-84
2023/10/02 00:26:28;;;;;;;11.60;7.40;;;;;;;17.33;58.13;99343.56;7058892;28;21901;-84
2023/10/02 00:29:52;;;;;;;11.67;6.60;;;;;;;17.27;58.90;99412.66;7043365;28;20216;-84
2023/10/02 00:33:13;;;;;;;10.03;6.37;;;;;;;17.24;59.48;99427.56;7051135;28;20231;-84
2023/10/02 00:36:36;;;;;;;12.27;7.10;;;;;;;18.01;58.13;99423.78;7054591;28;20196;-84
2023/10/02 00:39:58;;;;;;;11.27;7.17;;;;;;;17.98;57.83;99422.38;7049298;28;20203;-83
2023/10/02 00:43:45;;;;;;;13.70;6.87;;;;;;;18.36;56.50;99424.63;7052423;28;20596;-84
2023/10/02 00:47:06;;;;;;;12.47;7.40;;;;;;;18.36;56.41;99430.09;7056804;28;20231;-83
2023/10/02 00:50:27;;;;;;;12.27;6.90;;;;;;;18.06;56.15;99370.19;7057544;28;20204;-83
2023/10/02 00:53:53;;;;;;;13.70;7.63;;;;;;;18.30;56.58;99428.28;7053464;28;20846;-83
2023/10/02 00:57:18;;;;;;;11.43;6.90;;;;;;;18.28;56.58;99420.31;7058086;28;20681;-84
2023/10/02 01:00:47;;;;;;;12.97;7.33;;;;;;;17.59;56.64;99367.69;7043748;28;20196;-84
2023/10/02 01:04:10;;;;;;;14.43;7.30;;;;;;;18.02;57.01;99429.00;7057762;28;20224;-84
2023/10/02 01:07:33;;;;;;;11.30;6.57;;;;;;;17.54;56.81;99345.75;7074044;28;20231;-83
2023/10/02 01:10:57;;;;;;;10.43;6.67;;;;;;;17.90;57.10;99397.34;7059919;28;20303;-84
2023/10/02 01:14:40;;;;;;;11.10;6.70;;;;;;;17.79;57.31;99419.97;7039022;28;20228;-84
2023/10/02 01:21:37;;;;;;;11.63;6.73;;;;;;;18.21;57.47;99403.25;7031708;28;20258;-84
2023/10/02 01:25:12;;;;;;;13.07;7.20;;;;;;;18.46;56.91;99397.53;7037760;28;20261;-84
2023/10/02 01:28:49;;;;;;;14.37;7.97;;;;;;;18.30;57.33;99396.38;7051102;28;20207;-84
2023/10/02 01:32:10;;;;;;;13.70;6.77;;;;;;;18.50;56.40;99394.09;7055335;28;20277;-84
2023/10/02 01:35:32;;;;;;;12.70;7.60;;;;;;;18.29;56.52;99381.03;7056006;28;20308;-84
2023/10/02 01:38:59;;;;;;;11.87;7.10;;;;;;;18.34;56.56;99383.09;7055562;28;20343;-84
2023/10/02 01:42:22;;;;;;;13.97;7.53;;;;;;;18.35;56.19;99392.94;7054421;28;20218;-84
2023/10/02 01:45:44;;;;;;;11.37;7.33;;;;;;;18.45;55.66;99390.44;7054811;28;20236;-84
2023/10/02 01:49:24;;;;;;;12.27;8.07;;;;;;;17.96;56.51;99399.94;7046622;28;20214;-84
2023/10/02 01:52:45;;;;;;;12.87;7.10;;;;;;;18.06;56.83;99394.72;7026012;28;20233;-84
2023/10/02 01:56:11;;;;;;;12.13;7.73;;;;;;;17.99;56.97;99398.66;7046971;28;20254;-85
2023/10/02 01:59:34;;;;;;;12.93;7.53;;;;;;;17.83;57.36;99377.53;7045222;28;20572;-85
2023/10/02 02:03:14;;;;;;;12.67;7.40;;;;;;;18.02;56.82;99385.34;7051405;28;20251;-84
2023/10/02 02:06:51;;;;;;;13.93;7.93;;;;;;;18.26;56.51;99399.78;7060200;28;20216;-84
2023/10/02 02:10:13;;;;;;;10.73;7.33;;;;;;;17.95;57.10;99384.66;7060501;28;20272;-84
2023/10/02 02:13:44;;;;;;;13.50;7.67;;;;;;;18.09;57.28;99407.88;7059923;28;20264;-84
2023/10/02 02:17:10;;;;;;;11.70;7.47;;;;;;;17.97;56.76;99414.41;7060252;28;20190;-84
2023/10/02 02:20:44;;;;;;;10.60;6.77;;;;;;;18.00;57.50;99409.34;7060319;27;20294;-84
2023/10/02 02:24:07;;;;;;;12.27;7.90;;;;;;;18.12;56.74;99382.84;7036431;28;20212;-84
2023/10/02 02:27:29;;;;;;;14.63;8.03;;;;;;;17.88;56.60;99345.72;7059984;28;20319;-84
2023/10/02 02:30:51;;;;;;;12.20;7.23;;;;;;;18.25;56.21;99395.41;7059505;28;20251;-83
2023/10/02 02:34:15;;;;;;;14.23;7.80;;;;;;;18.15;56.14;99393.28;7057764;28;20242;-83
2023/10/02 02:37:39;;;;;;;11.93;7.23;;;;;;;17.85;56.70;99398.06;7039055;28;20233;-83
2023/10/02 02:41:09;;;;;;;14.90;7.63;;;;;;;17.32;58.80;99399.13;7055680;28;20218;-83
2023/10/02 02:44:36;;;;;;;11.33;6.97;;;;;;;17.82;57.49;99403.97;7059406;28;20230;-84
2023/10/02 02:48:03;;;;;;;11.57;7.17;;;;;;;17.83;57.35;99396.63;7043000;27;20655;-84
2023/10/02 02:51:27;;;;;;;12.87;7.30;;;;;;;17.97;56.81;99379.78;7047017;28;20204;-84
2023/10/02 02:54:50;;;;;;;10.60;6.90;;;;;;;17.94;56.82;99398.53;7051758;28;20256;-83
2023/10/02 02:58:12;;;;;;;12.73;7.93;;;;;;;18.03;56.88;99399.81;7052537;28;20193;-84
2023/10/02 03:01:33;;;;;;;17.57;7.90;;;;;;;18.23;56.25;99400.28;7041550;28;20795;-84
2023/10/02 03:04:56;;;;;;;17.07;7.87;;;;;;;17.78;57.40;99372.78;7058867;28;20317;-84
2023/10/02 03:08:19;;;;;;;16.60;8.57;;;;;;;17.96;57.52;99394.50;7065587;27;20629;-84
2023/10/02 03:11:41;;;;;;;12.13;7.57;;;;;;;18.10;56.96;99395.91;7050750;27;20232;-84
2023/10/02 03:15:03;;;;;;;11.70;7.03;;;;;;;17.53;57.83;99401.34;7057446;28;20318;-84
2023/10/02 03:18:30;;;;;;;12.23;7.60;;;;;;;17.14;58.48;99329.19;7041587;28;20201;-84
2023/10/02 03:22:01;;;;;;;14.97;8.13;;;;;;;17.73;57.95;99389.03;7047495;28;20651;-83
2023/10/02 03:25:28;;;;;;;16.67;7.57;;;;;;;17.77;57.43;99400.31;7043797;28;20590;-84
2023/10/02 03:28:56;;;;;;;14.77;8.23;;;;;;;17.96;57.02;99372.66;7047620;28;20274;-85
2023/10/02 03:32:23;;;;;;;13.70;7.27;;;;;;;18.09;56.87;99393.41;7057674;28;20200;-85
2023/10/02 03:35:56;;;;;;;11.03;8.07;;;;;;;17.89;57.02;99390.22;7058031;28;20366;-84
2023/10/02 03:39:51;;;;;;;13.67;7.60;;;;;;;17.81;57.13;99390.59;7058855;28;20246;-84
2023/10/02 03:43:34;;;;;;;10.10;7.07;;;;;;;17.62;57.68;99394.47;7037904;28;20218;-84
2023/10/02 03:46:59;;;;;;;12.67;8.00;;;;;;;17.54;58.52;99395.66;7032771;28;20269;-84
2023/10/02 03:50:24;;;;;;;12.57;8.33;;;;;;;17.43;58.85;99392.91;7040578;28;20671;-84
2023/10/02 03:53:45;;;;;;;11.33;7.37;;;;;;;17.57;57.92;99397.91;7053082;28;20224;-84
2023/10/02 03:57:10;;;;;;;11.50;7.13;;;;;;;17.16;58.35;99337.16;7051831;28;20808;-83
2023/10/02 04:00:43;;;;;;;13.93;7.97;;;;;;;17.62;58.10;99399.91;7031722;28;20213;-81
2023/10/02 04:04:19;;;;;;;11.47;7.33;;;;;;;17.79;58.12;99403.59;7050595;28;20234;-85
2023/10/02 04:07:41;;;;;;;13.03;8.00;;;;;;;17.68;57.63;99405.28;7052897;28;20728;-82
2023/10/02 04:11:03;;;;;;;14.03;7.90;;;;;;;17.55;58.17;99402.78;7041293;28;20244;-84
2023/10/02 04:14:32;;;;;;;13.67;7.67;;;;;;;17.67;57.17;99397.31;7054063;28;20559;-83
2023/10/02 04:17:55;;;;;;;16.50;7.63;;;;;;;17.28;58.03;99409.66;7055481;28;20231;-84
2023/10/02 04:21:22;;;;;;;11.23;7.20;;;;;;;17.03;58.29;99373.59;7044203;28;20684;-82
2023/10/02 04:24:58;;;;;;;12.17;7.70;;;;;;;17.43;57.70;99390.19;7055144;28;20226;-84
2023/10/02 04:28:27;;;;;;;13.43;7.60;;;;;;;17.59;57.56;99411.31;7046573;28;20210;-83
2023/10/02 04:32:10;;;;;;;12.60;7.90;;;;;;;17.04;57.19;99347.19;7060915;28;20205;-82
2023/10/02 04:35:46;;;;;;;10.57;7.40;;;;;;;16.95;58.47;99416.66;7042453;28;20223;-83
2023/10/02 04:39:13;;;;;;;11.07;7.10;;;;;;;16.76;59.09;99385.91;7050711;28;20345;-83
2023/10/02 04:46:13;;;;;;;16.10;8.33;;;;;;;16.74;59.33;99412.56;7050646;28;20244;-82
2023/10/02 04:49:59;;;;;;;12.60;7.90;;;;;;;16.61;60.25;99417.34;7045477;28;20213;-83
2023/10/02 04:57:11;;;;;;;12.30;7.73;;;;;;;16.65;59.63;99430.28;7050376;28;20205;-82
2023/10/02 05:00:36;;;;;;;12.10;7.87;;;;;;;16.61;59.95;99423.63;7052191;28;20190;-83
2023/10/02 05:04:02;;;;;;;13.37;7.73;;;;;;;16.38;59.98;99401.72;7041356;28;20234;-83
2023/10/02 05:07:22;;;;;;;12.00;7.47;;;;;;;16.63;59.96;99416.03;7049518;28;20210;-83
2023/10/02 05:10:49;;;;;;;14.53;7.70;;;;;;;16.80;59.49;99416.28;7056945;28;20811;-83
2023/10/02 05:14:13;;;;;;;13.83;7.80;;;;;;;16.36;59.48;99338.50;7054388;28;20249;-85
2023/10/02 05:17:46;;;;;;;14.87;7.70;;;;;;;16.45;58.47;99328.97;7038180;28;20204;-83
2023/10/02 05:21:07;;;;;;;13.13;8.00;;;;;;;16.32;58.03;99287.44;7029275;28;20190;-88
2023/10/02 05:24:32;;;;;;;14.60;8.07;;;;;;;16.72;58.74;99409.25;7045983;28;20217;-84
2023/10/02 05:27:55;;;;;;;13.23;7.40;;;;;;;16.32;59.25;99366.38;7042957;28;20244;-82
2023/10/02 05:31:20;;;;;;;13.40;8.30;;;;;;;16.63;59.56;99417.97;7047320;28;20712;-83
2023/10/02 05:34:58;;;;;;;13.90;7.77;;;;;;;16.02;58.97;99292.03;7035968;28;20599;-83
2023/10/02 05:38:21;;;;;;;14.47;8.57;;;;;;;16.95;58.71;99405.78;7041752;28;20268;-86
2023/10/02 05:41:45;;;;;;;16.73;9.47;;;;;;;17.27;58.38;99421.66;7048253;28;20227;-82
2023/10/02 05:45:12;;;;;;;13.23;7.93;;;;;;;16.87;58.78;99420.53;7043013;28;20213;-83
2023/10/02 05:48:37;;;;;;;14.17;8.40;;;;;;;16.79;59.92;99429.03;7053062;28;20221;-82
2023/10/02 05:52:00;;;;;;;13.90;8.73;;;;;;;16.15;60.97;99412.41;7051033;28;20201;-82
2023/10/02 05:55:22;;;;;;;11.23;7.77;;;;;;;16.59;60.74;99433.09;7040068;28;20226;-84
2023/10/02 05:58:43;;;;;;;13.40;8.20;;;;;;;16.97;59.78;99430.88;7058697;28;20209;-83
2023/10/02 06:02:11;;;;;;;11.40;7.97;;;;;;;17.14;59.22;99418.28;7056691;28;20210;-83
2023/10/02 06:05:33;;;;;;;12.90;8.07;;;;;;;16.98;59.81;99435.28;7043865;28;20224;-83
2023/10/02 06:08:56;;;;;;;13.23;7.93;;;;;;;17.01;60.25;99430.22;7036898;28;20243;-83
2023/10/02 06:12:18;;;;;;;13.10;8.43;;;;;;;17.29;59.72;99426.88;7045907;28;20204;-83
2023/10/02 06:15:46;;;;;;;17.40;8.63;;;;;;;17.39;59.50;99429.91;7045656;28;20309;-84
2023/10/02 06:19:13;;;;;;;16.80;10.50;;;;;;;17.49;59.17;99433.72;7041796;28;20207;-83
2023/10/02 06:22:47;;;;;;;19.13;12.47;;;;;;;17.57;59.09;99435.28;7048274;28;20252;-83
2023/10/02 06:26:09;;;;;;;23.87;15.77;;;;;;;17.44;58.95;99428.13;7041767;28;20226;-84
2023/10/02 06:29:33;;;;;;;16.87;8.50;;;;;;;17.48;59.40;99395.75;7057014;28;20200;-85
2023/10/02 06:32:54;;;;;;;12.47;7.80;;;;;;;17.59;58.26;99351.31;7035950;28;20683;-85
2023/10/02 06:36:18;;;;;;;10.20;7.23;;;;;;;17.90;58.30;99397.34;7051334;28;20235;-85
2023/10/02 06:39:40;;;;;;;12.03;7.30;;;;;;;18.97;56.18;99439.31;7054426;28;20604;-86
2023/10/02 06:43:02;;;;;;;15.07;9.53;;;;;;;19.06;55.16;99369.53;7052452;28;20205;-85
2023/10/02 06:46:24;;;;;;;14.37;9.27;;;;;;;19.86;53.84;99433.03;7058649;28;20212;-85
2023/10/02 06:49:46;;;;;;;13.27;7.70;;;;;;;19.74;54.01;99445.97;7033712;28;20208;-86
2023/10/02 06:53:11;;;;;;;14.10;8.37;;;;;;;20.09;53.35;99432.84;7038911;28;20204;-84
2023/10/02 06:56:33;;;;;;;13.10;7.93;;;;;;;20.14;52.77;99383.63;7052717;28;20331;-85
2023/10/02 06:59:56;;;;;;;14.33;9.43;;;;;;;20.87;51.99;99455.31;7051756;28;20542;-85
2023/10/02 07:03:18;;;;;;;14.00;9.00;;;;;;;21.06;51.52;99429.25;7043252;28;20244;-86
2023/10/02 07:06:39;;;;;;;13.17;8.17;;;;;;;21.53;50.87;99437.41;7056556;28;20225;-85
2023/10/02 07:10:08;;;;;;;15.77;8.80;;;;;;;21.11;50.16;99309.47;7041630;27;20209;-86
2023/10/02 07:13:31;;;;;;;12.30;8.57;;;;;;;22.49;48.68;99406.88;7041117;28;20758;-85
2023/10/02 07:17:11;;;;;;;15.57;8.67;;;;;;;22.44;49.57;99437.09;7058326;28;20654;-86
2023/10/02 07:20:42;;;;;;;14.10;8.23;;;;;;;22.30;48.65;99342.44;7035518;27;20202;-85
2023/10/02 07:24:24;;;;;;;13.17;7.27;;;;;;;23.26;48.50;99421.47;7056999;28;20224;-85
2023/10/02 07:27:48;;;;;;;15.23;7.67;;;;;;;23.53;45.86;99334.00;7041696;28;20220;-86
2023/10/02 07:31:15;;;;;;;11.83;8.43;;;;;;;24.07;45.06;99412.19;7037634;28;20212;-85
2023/10/02 07:34:38;;;;;;;14.43;8.97;;;;;;;24.36;44.78;99407.72;7035960;28;20227;-87
2023/10/02 07:38:00;;;;;;;16.57;8.67;;;;;;;23.98;45.80;99367.03;7037655;28;20208;-86
2023/10/02 07:41:24;;;;;;;12.33;7.63;;;;;;;24.66;44.15;99413.19;7028562;28;20224;-83
2023/10/02 07:44:47;;;;;;;14.13;8.23;;;;;;;25.10;43.47;99388.44;7050450;28;20601;-84
2023/10/02 07:48:12;;;;;;;14.93;8.50;;;;;;;24.65;44.06;99289.38;7033936;28;20274;-84
2023/10/02 07:51:36;;;;;;;11.30;7.50;;;;;;;25.98;41.85;99415.75;7042078;28;20664;-83
2023/10/02 07:54:59;;;;;;;11.33;7.57;;;;;;;25.82;41.85;99388.47;7048145;28;20289;-87
2023/10/02 07:58:21;;;;;;;11.33;7.53;;;;;;;26.12;41.55;99383.53;7050953;28;20229;-84
2023/10/02 08:01:44;;;;;;;14.33;8.10;;;;;;;25.99;41.91;99394.44;7045111;28;20280;-84
2023/10/02 08:05:09;;;;;;;12.10;7.90;;;;;;;26.49;40.97;99405.78;7034409;28;20243;-81
2023/10/02 08:08:33;;;;;;;11.73;7.70;;;;;;;25.69;41.67;99312.63;7047955;28;20221;-83
2023/10/02 08:11:55;;;;;;;11.97;7.03;;;;;;;26.14;41.52;99392.34;7051402;28;20224;-82
2023/10/02 08:15:27;;;;;;;10.93;7.87;;;;;;;26.38;41.43;99361.97;7045422;28;20224;-83
2023/10/02 08:18:58;;;;;;;13.33;8.17;;;;;;;27.36;38.43;99394.19;7043453;28;20208;-83
2023/10/02 08:22:20;;;;;;;13.30;8.23;;;;;;;27.92;37.37;99386.69;7045721;28;20208;-83
2023/10/02 08:25:42;;;;;;;13.50;7.93;;;;;;;28.16;36.49;99389.28;7048402;28;20309;-83
2023/10/02 08:29:03;;;;;;;10.17;7.27;;;;;;;28.06;36.79;99376.44;7038324;28;20227;-84
2023/10/02 08:32:30;;;;;;;14.27;8.53;;;;;;;28.31;36.09;99389.03;7042840;28;20201;-84
2023/10/02 08:35:54;;;;;;;12.63;7.83;;;;;;;28.56;35.25;99385.78;7027601;28;20217;-83
2023/10/02 08:39:21;;;;;;;11.87;8.03;;;;;;;28.35;35.59;99399.19;7033907;28;20236;-85
2023/10/02 08:42:46;;;;;;;11.23;7.97;;;;;;;28.85;35.19;99389.06;7047907;28;20204;-82
2023/10/02 08:46:18;;;;;;;14.47;8.30;;;;;;;29.17;34.38;99381.44;7054412;28;20671;-85
2023/10/02 08:49:40;;;;;;;12.33;8.13;;;;;;;29.05;34.54;99371.97;7035955;28;20208;-84
2023/10/02 08:53:09;;;;;;;12.63;7.63;;;;;;;28.78;34.06;99297.06;7035700;28;20207;-85
2023/10/02 08:56:40;;;;;;;11.63;7.70;;;;;;;29.07;34.78;99365.00;7054559;28;20691;-84
2023/10/02 09:00:13;;;;;;;13.10;8.47;;;;;;;29.38;34.04;99365.94;7038981;28;20227;-86
2023/10/02 09:03:41;;;;;;;12.53;8.13;;;;;;;29.47;33.16;99363.22;7044415;28;20251;-86
2023/10/02 09:07:15;;;;;;;14.03;8.83;;;;;;;29.31;33.00;99332.19;7049130;28;20216;-85
2023/10/02 09:10:58;;;;;;;14.00;8.77;;;;;;;29.71;32.88;99364.59;7034063;28;20279;-85
2023/10/02 09:14:23;;;;;;;13.53;8.67;;;;;;;29.41;33.08;99323.63;7039254;28;20220;-86
2023/10/02 09:17:45;;;;;;;12.30;8.03;;;;;;;29.05;33.67;99311.72;7037921;28;20676;-86
2023/10/02 09:21:15;;;;;;;12.63;8.40;;;;;;;30.01;31.79;99358.25;7049303;28;20202;-86
2023/10/02 09:24:37;;;;;;;13.73;8.87;;;;;;;28.93;32.57;99252.28;7036104;28;20272;-86
2023/10/02 09:28:04;;;;;;;12.23;8.30;;;;;;;29.57;33.38;99336.06;7035698;28;20254;-86
2023/10/02 09:31:26;;;;;;;12.37;8.43;;;;;;;29.31;33.67;99359.97;7044780;28;20205;-86
2023/10/02 09:35:08;;;;;;;14.27;8.63;;;;;;;29.43;34.02;99306.66;7045552;28;20303;-86
2023/10/02 09:38:32;;;;;;;14.03;9.47;;;;;;;29.84;33.54;99324.78;7039844;28;20577;-86
2023/10/02 09:42:05;;;;;;;13.30;9.07;;;;;;;29.85;33.45;99343.09;7032473;28;20210;-84
2023/10/02 09:45:34;;;;;;;12.67;9.87;;;;;;;30.03;33.50;99339.31;7046489;28;20247;-85
2023/10/02 09:49:03;;;;;;;15.47;9.57;;;;;;;29.35;33.72;99230.41;7031781;28;20213;-85
2023/10/02 09:52:34;;;;;;;12.80;9.10;;;;;;;29.25;34.68;99316.78;7033958;28;20193;-85
2023/10/02 09:56:07;;;;;;;15.40;9.50;;;;;;;29.35;34.55;99336.00;7038319;28;20541;-84
2023/10/02 09:59:28;;;;;;;13.43;8.33;;;;;;;29.17;34.24;99331.44;7045323;28;20198;-84
2023/10/02 10:03:30;;;;;;;13.37;9.13;;;;;;;30.03;33.82;99317.06;7048169;28;20775;-86
2023/10/02 10:07:09;;;;;;;14.00;9.00;;;;;;;28.83;35.37;99319.97;7044561;28;20619;-85
2023/10/02 10:10:45;;;;;;;14.50;9.53;;;;;;;28.57;34.79;99332.75;7061788;28;20210;-88
2023/10/02 10:14:36;;;;;;;15.57;9.17;;;;;;;29.54;33.53;99313.63;7069486;28;20329;-85
2023/10/02 10:18:03;;;;;;;15.10;9.77;;;;;;;30.72;33.37;99312.63;7054669;28;20212;-85
2023/10/02 10:21:55;;;;;;;12.60;8.27;;;;;;;31.10;32.33;99310.88;7042354;28;20687;-85
2023/10/02 10:25:49;;;;;;;15.93;9.67;;;;;;;30.84;31.93;99305.25;7041226;28;20610;-85
2023/10/02 10:29:41;;;;;;;13.23;8.80;;;;;;;30.68;31.03;99290.19;7038454;28;20686;-85
2023/10/02 10:33:40;;;;;;;14.27;9.10;;;;;;;30.56;32.07;99289.97;7048151;28;20665;-85
2023/10/02 10:37:02;;;;;;;13.67;9.37;;;;;;;30.26;31.40;99282.47;7057141;28;20207;-86
2023/10/02 10:40:50;;;;;;;16.70;9.50;;;;;;;29.68;32.58;99237.38;7053926;28;20210;-87
2023/10/02 10:44:13;;;;;;;15.47;9.70;;;;;;;30.43;31.81;99282.53;7046457;28;20263;-87
2023/10/02 10:47:39;;;;;;;13.83;9.63;;;;;;;30.44;32.71;99278.59;7051606;28;20269;-85
2023/10/02 10:51:20;;;;;;;13.40;9.23;;;;;;;30.70;31.43;99278.69;7047394;28;20233;-85
2023/10/02 10:54:42;;;;;;;13.20;9.30;;;;;;;31.12;31.65;99264.81;7043500;28;20223;-86
2023/10/02 10:58:04;;;;;;;14.47;9.80;;;;;;;30.84;32.11;99268.25;7051513;27;20299;-85
2023/10/02 11:01:25;;;;;;;14.77;10.70;;;;;;;30.89;31.23;99234.69;7052698;28;20260;-88
2023/10/02 11:04:47;;;;;;;18.13;11.00;;;;;;;31.72;28.61;99253.66;7034975;28;20331;-91
2023/10/02 11:08:30;;;;;;;18.67;11.07;;;;;;;32.00;27.90;99254.88;7047227;28;20316;-83
2023/10/02 11:11:53;;;;;;;18.60;11.77;;;;;;;31.99;25.74;99256.03;7053590;28;20772;-83
2023/10/02 11:15:30;;;;;;;20.77;12.07;;;;;;;31.54;24.39;99201.84;7052952;28;20221;-86
2023/10/02 11:19:10;;;;;;;19.07;12.30;;;;;;;31.35;25.74;99252.38;7055770;28;20209;-85
2023/10/02 11:22:48;;;;;;;21.37;13.50;;;;;;;31.97;26.42;99256.34;7041873;28;20210;-84
2023/10/02 11:26:12;;;;;;;21.17;12.13;;;;;;;32.45;25.93;99245.66;7035201;28;20361;-84
2023/10/02 11:29:40;;;;;;;19.63;12.80;;;;;;;33.19;24.08;99246.59;7029311;28;20230;-88
2023/10/02 11:33:04;;;;;;;22.47;13.57;;;;;;;31.83;25.55;99247.38;7026709;28;20236;-86
2023/10/02 11:36:28;;;;;;;19.70;12.50;;;;;;;32.65;25.42;99238.44;7030577;28;20210;-85
2023/10/02 11:39:51;;;;;;;19.03;13.30;;;;;;;33.09;24.86;99237.84;7048085;28;20210;-85
2023/10/02 11:43:15;;;;;;;22.60;14.23;;;;;;;33.25;24.58;99228.47;7043967;28;20241;-85
2023/10/02 11:46:37;;;;;;;21.53;13.37;;;;;;;32.84;24.86;99213.72;7037109;28;20571;-85
2023/10/02 11:49:59;;;;;;;22.60;14.03;;;;;;;32.50;24.39;99163.66;7045572;28;20314;-86
2023/10/02 11:53:21;;;;;;;21.97;14.07;;;;;;;32.20;25.48;99217.84;7038969;28;20315;-85
2023/10/02 11:56:44;;;;;;;22.77;14.13;;;;;;;32.53;24.98;99188.94;7043124;28;20310;-85
2023/10/02 12:00:12;;;;;;;20.10;14.07;;;;;;;32.56;25.32;99134.38;7038320;28;20211;-85
2023/10/02 12:03:36;;;;;;;20.67;13.40;;;;;;;33.29;25.08;99195.91;7040495;28;20322;-85
2023/10/02 12:06:57;;;;;;;21.63;13.47;;;;;;;33.95;25.12;99193.88;7033857;28;20620;-85
2023/10/02 12:10:20;;;;;;;23.10;13.97;;;;;;;34.11;25.03;99189.19;7035300;28;20228;-85
2023/10/02 12:13:44;;;;;;;21.13;13.40;;;;;;;33.87;25.50;99186.38;7041707;28;20744;-84
2023/10/02 12:17:11;;;;;;;19.47;13.03;;;;;;;33.78;25.13;99171.69;7039071;28;20208;-85
2023/10/02 12:20:33;;;;;;;19.97;13.37;;;;;;;34.21;24.38;99181.16;7027916;28;20209;-84
2023/10/02 12:23:54;;;;;;;22.67;13.50;;;;;;;34.00;24.41;99174.84;7027926;28;20266;-84
2023/10/02 12:27:17;;;;;;;23.90;14.83;;;;;;;33.59;24.71;99154.59;7038889;28;20249;-85
2023/10/02 12:30:39;;;;;;;24.17;14.43;;;;;;;33.97;24.59;99160.75;7038465;28;20235;-85
2023/10/02 12:34:02;;;;;;;20.90;13.77;;;;;;;34.49;23.87;99148.47;7049557;28;20256;-85
2023/10/02 12:37:23;;;;;;;22.93;14.73;;;;;;;34.41;23.36;99155.03;7039016;28;20242;-84
2023/10/02 12:40:46;;;;;;;23.33;15.03;;;;;;;34.32;23.22;99131.13;7037324;28;20228;-85
2023/10/02 12:44:08;;;;;;;24.50;14.70;;;;;;;34.31;23.92;99130.31;7037060;28;20407;-84
2023/10/02 12:47:30;;;;;;;24.37;15.60;;;;;;;34.31;23.25;99138.69;7041504;28;20579;-84
2023/10/02 12:50:53;;;;;;;26.47;15.80;;;;;;;34.17;23.34;99101.00;7045618;28;20235;-87
2023/10/02 12:54:15;;;;;;;28.53;17.50;;;;;;;32.77;23.63;99124.88;7049056;28;20269;-85
2023/10/02 12:57:37;;;;;;;28.57;18.00;;;;;;;33.43;23.97;99126.50;7040643;28;20253;-86
2023/10/02 13:01:00;;;;;;;26.57;17.40;;;;;;;34.07;23.38;99127.50;7037136;28;20728;-84
2023/10/02 13:04:22;;;;;;;26.83;16.93;;;;;;;34.10;23.28;99112.81;7039604;28;20236;-86
2023/10/02 13:07:45;;;;;;;29.67;18.93;;;;;;;34.54;20.98;99120.22;7038731;28;20204;-86
2023/10/02 13:11:13;;;;;;;33.80;21.07;;;;;;;34.90;18.51;99103.28;7042492;28;20204;-86
2023/10/02 13:14:35;;;;;;;35.93;22.97;;;;;;;34.80;17.62;99089.81;7041390;27;20317;-86
2023/10/02 13:17:56;;;;;;;31.93;20.13;;;;;;;34.34;19.69;99106.38;7038614;28;20201;-85
2023/10/02 13:21:18;;;;;;;29.10;18.43;;;;;;;34.32;21.68;99092.72;7048718;28;20219;-84
2023/10/02 13:24:42;;;;;;;28.57;18.53;;;;;;;34.57;21.61;99091.50;7037767;28;20738;-85
2023/10/02 13:28:04;;;;;;;30.37;19.23;;;;;;;33.04;22.40;99090.75;7027929;28;20205;-86
2023/10/02 13:31:25;;;;;;;32.70;20.00;;;;;;;33.64;21.86;99078.88;7035955;28;20789;-85
2023/10/02 13:34:47;;;;;;;31.23;18.70;;;;;;;33.67;21.88;99014.63;7030501;28;20322;-85
2023/10/02 13:38:10;;;;;;;29.90;19.83;;;;;;;33.68;21.66;99077.84;7028677;28;20208;-84
2023/10/02 13:41:34;;;;;;;31.53;20.27;;;;;;;33.97;20.83;99074.78;7028216;28;20635;-84
2023/10/02 13:44:56;;;;;;;31.97;19.37;;;;;;;33.34;21.58;99057.88;7037473;28;20352;-84
2023/10/02 13:48:17;;;;;;;29.53;20.33;;;;;;;33.41;20.54;99066.50;7038753;28;20277;-85
2023/10/02 13:51:41;;;;;;;33.23;20.67;;;;;;;33.56;21.08;99060.22;7039563;28;20237;-85
2023/10/02 13:55:19;;;;;;;32.40;19.73;;;;;;;33.68;20.27;99061.06;7033101;28;20230;-85
2023/10/02 13:58:43;;;;;;;33.97;20.47;;;;;;;33.66;21.04;99056.97;7037750;28;20204;-84
2023/10/02 14:02:04;;;;;;;28.40;18.63;;;;;;;33.31;21.11;99044.59;7037085;28;20231;-86
2023/10/02 14:05:29;;;;;;;36.07;21.17;;;;;;;33.22;21.22;99053.06;7044627;28;20723;-85
2023/10/02 14:08:50;;;;;;;32.47;19.30;;;;;;;33.88;20.43;99028.53;7032071;28;20234;-85
2023/10/02 14:12:15;;;;;;;29.17;19.53;;;;;;;33.14;20.40;99041.97;7036182;28;20288;-86
2023/10/02 14:15:38;;;;;;;34.97;21.37;;;;;;;34.12;19.99;99043.28;7047764;28;20317;-85
2023/10/02 14:19:00;;;;;;;29.97;18.83;;;;;;;33.92;20.03;99037.84;7048434;28;20362;-85
2023/10/02 14:22:22;;;;;;;29.57;18.73;;;;;;;33.94;21.55;99032.72;7041059;28;20219;-84
2023/10/02 14:25:43;;;;;;;28.93;18.30;;;;;;;34.22;21.12;99033.59;7033303;28;20282;-85
2023/10/02 14:29:11;;;;;;;30.03;18.97;;;;;;;34.29;20.69;99036.63;7042893;28;20329;-85
2023/10/02 14:32:34;;;;;;;30.73;19.80;;;;;;;34.01;20.49;99036.53;7051083;28;20566;-85
2023/10/02 14:35:57;;;;;;;31.70;19.83;;;;;;;33.76;20.52;99028.50;7027766;28;20233;-85
2023/10/02 14:39:18;;;;;;;30.97;19.37;;;;;;;34.04;20.40;99012.63;7028071;28;20203;-86
2023/10/02 14:42:41;;;;;;;33.83;19.50;;;;;;;33.88;19.56;99018.16;7035168;28;20295;-85
2023/10/02 14:46:04;;;;;;;31.90;19.60;;;;;;;34.11;19.84;99012.84;7049356;28;20263;-86
2023/10/02 14:49:27;;;;;;;29.80;17.63;;;;;;;34.07;20.60;99021.13;7048150;28;20246;-85
2023/10/02 14:52:50;;;;;;;31.13;18.77;;;;;;;34.18;20.06;99018.66;7042165;28;20758;-84
2023/10/02 14:56:11;;;;;;;32.07;19.20;;;;;;;33.93;19.70;99022.69;7039577;28;20212;-85
2023/10/02 14:59:35;;;;;;;31.17;19.60;;;;;;;33.45;20.74;99011.50;7037232;28;20203;-85
2023/10/02 15:02:57;;;;;;;29.93;18.27;;;;;;;33.84;20.63;99003.22;7038416;28;20295;-85
2023/10/02 15:06:20;;;;;;;33.13;19.03;;;;;;;33.91;24.57;99002.66;7045095;28;20235;-85
2023/10/02 15:09:42;;;;;;;32.67;18.73;;;;;;;33.60;25.26;99008.81;7055230;28;20312;-85
2023/10/02 15:13:05;;;;;;;31.57;19.40;;;;;;;32.89;25.81;98934.13;7052756;28;20207;-84
2023/10/02 15:16:26;;;;;;;29.77;19.23;;;;;;;33.06;26.01;99001.78;7057959;28;20292;-85
2023/10/02 15:19:48;;;;;;;29.63;18.70;;;;;;;32.89;26.62;99004.78;7049774;28;20202;-84
2023/10/02 15:23:11;;;;;;;31.70;19.60;;;;;;;32.78;26.15;99005.56;7039664;28;20205;-85
2023/10/02 15:26:33;;;;;;;33.43;17.87;;;;;;;32.54;27.60;99006.28;7042572;28;20344;-85
2023/10/02 15:29:54;;;;;;;34.83;19.73;;;;;;;32.15;26.64;98978.88;7038006;28;20222;-85
2023/10/02 15:33:16;;;;;;;33.80;19.63;;;;;;;31.98;26.47;98942.75;7059560;28;20228;-83
2023/10/02 15:36:38;;;;;;;33.80;19.40;;;;;;;32.26;27.35;99016.38;7078538;28;20211;-85
2023/10/02 15:40:07;;;;;;;33.10;20.33;;;;;;;31.50;28.56;98978.69;7071866;27;20289;-85
2023/10/02 15:43:29;;;;;;;36.03;21.30;;;;;;;31.17;29.89;99001.91;7040835;28;20233;-86
2023/10/02 15:46:50;;;;;;;30.83;19.13;;;;;;;31.24;29.82;99005.84;7027974;28;20636;-85
2023/10/02 15:50:14;;;;;;;33.63;20.43;;;;;;;30.97;30.53;98992.34;7043402;28;20304;-85
2023/10/02 15:53:35;;;;;;;32.70;19.90;;;;;;;30.87;30.63;99005.78;7037743;28;20637;-84
2023/10/02 15:57:02;;;;;;;36.60;21.93;;;;;;;30.77;30.46;99008.97;7043313;28;20341;-83
2023/10/02 16:00:25;;;;;;;33.77;20.13;;;;;;;30.40;30.46;98999.34;7032406;28;20201;-84
2023/10/02 16:03:48;;;;;;;34.33;19.37;;;;;;;30.26;31.63;99015.38;7038272;28;20818;-85
2023/10/02 16:07:10;;;;;;;32.60;19.80;;;;;;;29.97;32.09;99009.63;7032417;28;20734;-85